createdAt,value
2023-05-02T00:02:14.587Z,55.68
2023-05-02T00:04:46.603Z,56.18
2023-05-02T00:07:18.336Z,56.15
2023-05-02T00:09:50.067Z,56.25
2023-05-02T00:12:24.621Z,56.63
2023-05-02T00:14:56.300Z,57.29
2023-05-02T00:17:28.235Z,57.14
2023-05-02T00:20:00.168Z,57.41
2023-05-02T00:22:32.836Z,56.99
2023-05-02T00:25:05.891Z,57.13
2023-05-02T00:27:37.702Z,57.20
2023-05-02T00:30:11.756Z,57.54
2023-05-02T00:32:44.242Z,57.70
2023-05-02T00:35:16.081Z,57.68
2023-05-02T00:37:50.933Z,57.98
2023-05-02T00:40:22.660Z,58.27
2023-05-02T00:42:55.072Z,58.03
2023-05-02T00:45:26.968Z,57.94
2023-05-02T00:47:59.054Z,58.21
2023-05-02T00:50:32.766Z,58.58
2023-05-02T00:53:05.449Z,58.48
2023-05-02T00:55:37.438Z,58.98
2023-05-02T00:58:12.728Z,59.08
2023-05-02T01:01:15.949Z,59.33
2023-05-02T01:03:59.800Z,59.92
2023-05-02T01:06:43.944Z,60.30
2023-05-02T01:09:34.221Z,60.34
2023-05-02T01:12:23.928Z,60.62
2023-05-02T01:14:57.392Z,60.28
2023-05-02T01:17:32.903Z,61.02
2023-05-02T01:20:21.688Z,61.24
2023-05-02T01:22:56.533Z,60.90
2023-05-02T01:26:06.219Z,60.84
2023-05-02T01:29:04.801Z,61.19
2023-05-02T01:31:40.118Z,61.95
2023-05-02T01:34:13.361Z,61.89
2023-05-02T01:36:47.131Z,62.19
2023-05-02T01:39:21.944Z,62.70
2023-05-02T01:41:57.415Z,63.00
2023-05-02T01:44:30.474Z,62.96
2023-05-02T01:47:05.460Z,62.95
2023-05-02T01:49:38.603Z,63.32
2023-05-02T01:52:13.014Z,62.99
2023-05-02T01:54:46.564Z,62.89
2023-05-02T01:57:19.300Z,63.25
2023-05-02T01:59:55.346Z,63.04
2023-05-02T02:02:28.005Z,63.70
2023-05-02T02:05:00.921Z,63.92
2023-05-02T02:07:32.882Z,63.60
2023-05-02T02:10:05.135Z,63.23
2023-05-02T02:12:41.828Z,63.84
2023-05-02T02:15:19.949Z,63.96
2023-05-02T02:18:18.528Z,64.52
2023-05-02T02:20:51.502Z,64.30
2023-05-02T02:23:29.350Z,64.40
2023-05-02T02:26:03.053Z,64.74
2023-05-02T02:28:35.104Z,64.88
2023-05-02T02:31:07.650Z,64.00
2023-05-02T02:33:40.744Z,64.19
2023-05-02T02:36:19.196Z,63.99
2023-05-02T02:39:00.986Z,64.45
2023-05-02T02:41:48.121Z,64.01
2023-05-02T02:44:31.488Z,64.58
2023-05-02T02:47:13.193Z,64.15
2023-05-02T02:50:15.967Z,64.79
2023-05-02T02:52:57.661Z,64.75
2023-05-02T02:55:32.901Z,64.54
2023-05-02T02:58:15.665Z,65.78
2023-05-02T03:00:50.030Z,65.49
2023-05-02T03:03:29.187Z,65.54
2023-05-02T03:06:01.461Z,66.05
2023-05-02T03:08:44.579Z,66.60
2023-05-02T03:11:21.977Z,65.94
2023-05-02T03:13:53.906Z,66.14
2023-05-02T03:16:51.880Z,66.08
2023-05-02T03:19:24.698Z,65.73
2023-05-02T03:21:57.324Z,65.90
2023-05-02T03:24:29.739Z,66.31
2023-05-02T03:27:04.664Z,66.55
2023-05-02T03:29:43.037Z,66.71
2023-05-02T03:32:16.896Z,66.46
2023-05-02T03:34:49.504Z,66.60
2023-05-02T03:37:22.039Z,66.66
2023-05-02T03:39:53.898Z,66.71
2023-05-02T03:42:25.834Z,66.58
2023-05-02T03:44:57.620Z,66.25
2023-05-02T03:47:32.308Z,66.82
2023-05-02T03:50:04.221Z,66.76
2023-05-02T03:52:37.398Z,66.74
2023-05-02T03:55:10.645Z,66.18
2023-05-02T03:57:42.637Z,66.73
2023-05-02T04:00:17.631Z,67.14
2023-05-02T04:02:56.702Z,66.94
2023-05-02T04:05:31.557Z,66.89
2023-05-02T04:08:03.483Z,66.68
2023-05-02T04:10:36.040Z,66.69
2023-05-02T04:13:10.776Z,66.85
2023-05-02T04:15:45.970Z,66.38
2023-05-02T04:18:19.767Z,66.18
2023-05-02T04:20:51.792Z,66.23
2023-05-02T04:23:25.762Z,66.06
2023-05-02T04:26:02.711Z,66.00
2023-05-02T04:28:47.221Z,65.93
2023-05-02T04:31:20.834Z,65.92
2023-05-02T04:33:53.281Z,66.03
2023-05-02T04:36:29.177Z,65.90
2023-05-02T04:39:01.124Z,65.77
2023-05-02T04:41:34.414Z,65.89
2023-05-02T04:44:09.997Z,66.15
2023-05-02T04:46:43.703Z,66.23
2023-05-02T04:49:15.597Z,65.59
2023-05-02T04:51:47.386Z,66.02
2023-05-02T04:54:19.567Z,65.50
2023-05-02T04:56:52.007Z,65.94
2023-05-02T04:59:24.277Z,66.07
2023-05-02T05:01:57.368Z,65.91
2023-05-02T05:04:29.251Z,65.50
2023-05-02T05:07:01.543Z,65.77
2023-05-02T05:09:34.425Z,65.61
2023-05-02T05:12:06.215Z,66.07
2023-05-02T05:14:39.825Z,66.03
2023-05-02T05:17:12.879Z,65.86
2023-05-02T05:19:45.470Z,66.08
2023-05-02T05:22:17.749Z,65.97
2023-05-02T05:24:54.180Z,65.92
2023-05-02T05:27:28.686Z,66.01
2023-05-02T05:30:01.032Z,65.86
2023-05-02T05:32:34.053Z,66.35
2023-05-02T05:35:08.506Z,65.95
2023-05-02T05:37:41.634Z,66.00
2023-05-02T05:40:17.108Z,65.97
2023-05-02T05:42:53.396Z,65.86
2023-05-02T05:45:30.905Z,65.52
2023-05-02T05:48:02.672Z,66.17
2023-05-02T05:50:38.380Z,65.81
2023-05-02T05:53:10.310Z,66.05
2023-05-02T05:55:43.473Z,65.68
2023-05-02T05:58:15.534Z,65.26
2023-05-02T06:00:49.385Z,65.69
2023-05-02T06:03:21.791Z,65.37
2023-05-02T06:05:53.968Z,65.20
2023-05-02T06:08:25.737Z,64.76
2023-05-02T06:10:58.888Z,65.33
2023-05-02T06:13:30.716Z,65.86
2023-05-02T06:16:03.366Z,65.45
2023-05-02T06:18:35.616Z,65.33
2023-05-02T06:21:07.532Z,65.11
2023-05-02T06:23:39.397Z,65.03
2023-05-02T06:26:11.656Z,64.60
2023-05-02T06:28:43.551Z,64.92
2023-05-02T06:31:16.460Z,64.82
2023-05-02T06:33:48.280Z,65.03
2023-05-02T06:36:20.092Z,65.34
2023-05-02T06:38:51.925Z,65.24
2023-05-02T06:41:23.728Z,65.31
2023-05-02T06:43:56.673Z,65.50
2023-05-02T06:46:30.840Z,65.07
2023-05-02T06:49:02.626Z,65.58
2023-05-02T06:51:34.442Z,65.85
2023-05-02T06:54:06.267Z,65.85
2023-05-02T06:56:38.205Z,65.34
2023-05-02T06:59:09.976Z,65.27
2023-05-02T07:01:42.083Z,65.38
2023-05-02T07:04:13.941Z,65.00
2023-05-02T07:06:46.973Z,64.73
2023-05-02T07:09:19.154Z,64.66
2023-05-02T07:11:51.004Z,64.37
2023-05-02T07:14:22.850Z,64.47
2023-05-02T07:16:54.736Z,64.27
2023-05-02T07:19:26.625Z,64.05
2023-05-02T07:21:58.415Z,63.59
2023-05-02T07:24:30.680Z,63.60
2023-05-02T07:27:03.386Z,63.28
2023-05-02T07:29:35.163Z,63.16
2023-05-02T07:32:07.050Z,62.25
2023-05-02T07:34:38.799Z,61.94
2023-05-02T07:37:11.770Z,61.56
2023-05-02T07:39:43.510Z,61.11
2023-05-02T07:42:18.410Z,60.42
2023-05-02T07:44:50.432Z,59.72
2023-05-02T07:47:22.665Z,58.69
2023-05-02T07:49:55.548Z,57.97
2023-05-02T07:52:27.368Z,57.55
2023-05-02T07:54:59.072Z,56.76
2023-05-02T07:57:31.519Z,55.81
2023-05-02T08:00:04.493Z,55.14
2023-05-02T08:02:46.327Z,54.69
2023-05-02T08:05:18.499Z,53.96
2023-05-02T08:07:50.607Z,53.41
2023-05-02T08:10:24.271Z,52.93
2023-05-02T08:12:56.205Z,52.50
2023-05-02T08:15:28.100Z,51.90
2023-05-02T08:18:00.051Z,51.37
2023-05-02T08:20:31.840Z,51.01
2023-05-02T08:23:03.648Z,50.77
2023-05-02T08:25:35.402Z,50.31
2023-05-02T08:28:07.155Z,50.25
2023-05-02T08:30:38.945Z,49.98
2023-05-02T08:33:10.958Z,49.24
2023-05-02T08:35:42.992Z,48.80
2023-05-02T08:38:14.776Z,48.49
2023-05-02T08:40:49.426Z,48.58
2023-05-02T08:43:21.664Z,47.67
2023-05-02T08:45:57.992Z,46.80
2023-05-02T08:48:29.963Z,45.75
2023-05-02T08:51:03.482Z,45.95
2023-05-02T08:53:36.453Z,45.03
2023-05-02T08:56:09.852Z,44.91
2023-05-02T08:58:41.760Z,44.74
2023-05-02T09:01:16.412Z,43.18
2023-05-02T09:03:48.689Z,42.46
2023-05-02T09:06:22.840Z,42.26
2023-05-02T09:08:55.067Z,42.95
2023-05-02T09:11:26.928Z,43.34
2023-05-02T09:14:03.920Z,42.20
2023-05-02T09:16:40.604Z,41.75
2023-05-02T09:19:25.293Z,40.94
2023-05-02T09:22:04.229Z,41.53
2023-05-02T09:24:38.393Z,42.26
2023-05-02T09:27:10.506Z,41.61
2023-05-02T09:29:45.982Z,41.51
2023-05-02T09:32:17.692Z,41.16
2023-05-02T09:35:07.345Z,40.61
2023-05-02T09:37:39.178Z,40.89
2023-05-02T09:40:11.835Z,40.67
2023-05-02T09:42:43.694Z,40.20
2023-05-02T09:45:25.172Z,41.05
2023-05-02T09:48:02.254Z,41.85
2023-05-02T09:50:35.140Z,41.79
2023-05-02T09:53:09.618Z,41.64
2023-05-02T09:55:41.669Z,42.14
2023-05-02T09:58:24.174Z,40.74
2023-05-02T10:00:56.126Z,41.10
2023-05-02T10:03:29.261Z,41.38
2023-05-02T10:06:02.052Z,41.69
2023-05-02T10:08:34.127Z,40.50
2023-05-02T10:11:08.583Z,40.89
2023-05-02T10:13:42.937Z,41.33
2023-05-02T10:16:27.660Z,40.61
2023-05-02T10:19:03.322Z,41.58
2023-05-02T10:21:37.063Z,41.70
2023-05-02T10:24:09.238Z,42.05
2023-05-02T10:26:41.496Z,41.27
2023-05-02T10:29:13.787Z,41.61
2023-05-02T10:31:46.342Z,41.00
2023-05-02T10:34:19.050Z,40.55
2023-05-02T10:36:50.904Z,40.44
2023-05-02T10:39:24.997Z,40.28
2023-05-02T10:41:58.902Z,39.55
2023-05-02T10:44:35.850Z,39.63
2023-05-02T10:47:23.550Z,39.65
2023-05-02T10:49:58.018Z,39.77
2023-05-02T10:52:34.355Z,39.84
2023-05-02T10:55:24.581Z,39.96
2023-05-02T10:58:02.242Z,40.22
2023-05-02T11:00:34.796Z,40.90
2023-05-02T11:03:06.795Z,41.87
2023-05-02T11:06:05.453Z,41.26
2023-05-02T11:08:37.493Z,40.37
2023-05-02T11:11:37.974Z,41.39
2023-05-02T11:14:11.201Z,40.75
2023-05-02T11:16:59.127Z,40.27
2023-05-02T11:19:56.862Z,40.29
2023-05-02T11:22:32.242Z,40.02
2023-05-02T11:25:05.426Z,39.43
2023-05-02T11:27:43.470Z,39.31
2023-05-02T11:30:16.065Z,39.33
2023-05-02T11:32:49.245Z,39.58
2023-05-02T11:35:23.256Z,39.62
2023-05-02T11:38:01.431Z,39.12
2023-05-02T11:40:33.155Z,40.22
2023-05-02T11:43:16.947Z,40.02
2023-05-02T11:45:48.930Z,40.33
2023-05-02T11:48:23.056Z,39.91
2023-05-02T11:50:57.649Z,40.21
2023-05-02T11:53:31.436Z,40.23
2023-05-02T11:56:04.692Z,39.43
2023-05-02T11:58:36.686Z,39.47
2023-05-02T12:01:13.594Z,40.42
2023-05-02T12:03:45.815Z,39.94
2023-05-02T12:06:21.879Z,40.21
2023-05-02T12:09:07.306Z,39.53
2023-05-02T12:11:39.281Z,39.60
2023-05-02T12:14:11.539Z,40.04
2023-05-02T12:16:43.663Z,40.46
2023-05-02T12:19:16.536Z,40.83
2023-05-02T12:21:48.592Z,40.59
2023-05-02T12:24:21.479Z,40.30
2023-05-02T12:27:15.852Z,41.07
2023-05-02T12:29:49.056Z,41.11
2023-05-02T12:32:31.922Z,41.85
2023-05-02T12:35:04.276Z,41.33
2023-05-02T12:37:39.668Z,41.91
2023-05-02T12:40:17.331Z,42.08
2023-05-02T12:43:04.353Z,42.13
2023-05-02T12:45:36.668Z,42.35
2023-05-02T12:48:20.834Z,42.13
2023-05-02T12:50:53.599Z,42.47
2023-05-02T12:53:40.097Z,42.01
2023-05-02T12:56:13.376Z,42.29
2023-05-02T12:58:49.526Z,42.20
2023-05-02T13:01:21.349Z,42.26
2023-05-02T13:03:53.265Z,41.94
2023-05-02T13:06:25.377Z,41.69
2023-05-02T13:08:57.211Z,42.09
2023-05-02T13:11:29.441Z,41.84
2023-05-02T13:14:03.401Z,42.06
2023-05-02T13:16:37.344Z,42.44
2023-05-02T13:19:09.667Z,42.57
2023-05-02T13:21:41.428Z,42.77
2023-05-02T13:24:15.136Z,43.53
2023-05-02T13:26:46.949Z,43.79
2023-05-02T13:29:18.732Z,44.55
2023-05-02T13:31:50.774Z,44.81
2023-05-02T13:34:22.682Z,45.21
2023-05-02T13:36:54.449Z,44.48
2023-05-02T13:39:26.171Z,44.04
2023-05-02T13:41:58.070Z,43.75
2023-05-02T13:44:31.955Z,44.01
2023-05-02T13:47:04.095Z,43.76
2023-05-02T13:49:36.054Z,42.67
2023-05-02T13:52:07.825Z,42.58
2023-05-02T13:54:39.793Z,42.66
2023-05-02T13:57:12.044Z,42.96
2023-05-02T13:59:43.897Z,42.58
2023-05-02T14:02:16.380Z,42.40
2023-05-02T14:04:48.277Z,42.58
2023-05-02T14:07:24.195Z,42.93
2023-05-02T14:09:56.226Z,42.55
2023-05-02T14:12:28.405Z,42.41
2023-05-02T14:15:00.189Z,43.41
2023-05-02T14:17:32.438Z,43.47
2023-05-02T14:20:04.894Z,43.12
2023-05-02T14:22:36.713Z,42.94
2023-05-02T14:25:11.588Z,42.19
2023-05-02T14:27:43.992Z,42.58
2023-05-02T14:30:15.903Z,42.05
2023-05-02T14:32:47.649Z,42.44
2023-05-02T14:35:19.462Z,42.91
2023-05-02T14:37:51.419Z,43.00
2023-05-02T14:40:23.181Z,42.52
2023-05-02T14:42:54.919Z,43.65
2023-05-02T14:45:26.816Z,43.33
2023-05-02T14:47:58.683Z,43.47
2023-05-02T14:50:30.470Z,43.44
2023-05-02T14:53:02.338Z,43.09
2023-05-02T14:55:39.779Z,42.30
2023-05-02T14:58:11.971Z,42.76
2023-05-02T15:00:43.806Z,42.79
2023-05-02T15:03:15.847Z,42.86
2023-05-02T15:05:47.776Z,43.31
2023-05-02T15:08:19.682Z,42.50
2023-05-02T15:10:51.537Z,43.26
2023-05-02T15:13:23.498Z,42.98
2023-05-02T15:15:55.656Z,43.04
2023-05-02T15:18:27.461Z,42.90
2023-05-02T15:20:59.292Z,43.05
2023-05-02T15:23:31.615Z,43.10
2023-05-02T15:26:04.019Z,43.13
2023-05-02T15:28:35.837Z,43.50
2023-05-02T15:31:09.310Z,43.58
2023-05-02T15:33:41.334Z,43.77
2023-05-02T15:36:13.304Z,43.44
2023-05-02T15:38:45.097Z,43.69
2023-05-02T15:41:16.904Z,43.86
2023-05-02T15:43:48.701Z,43.15
2023-05-02T15:46:22.333Z,43.27
2023-05-02T15:48:54.524Z,43.18
2023-05-02T15:51:26.926Z,43.23
2023-05-02T15:53:59.149Z,43.40
2023-05-02T15:56:32.290Z,43.67
2023-05-02T15:59:04.206Z,43.53
2023-05-02T16:01:37.848Z,43.76
2023-05-02T16:04:10.047Z,43.87
2023-05-02T16:06:42.142Z,43.63
2023-05-02T16:09:13.981Z,44.15
2023-05-02T16:11:47.113Z,44.38
2023-05-02T16:14:18.812Z,44.45
2023-05-02T16:16:51.679Z,44.26
2023-05-02T16:19:23.495Z,44.09
2023-05-02T16:21:55.407Z,43.94
2023-05-02T16:24:27.700Z,44.34
2023-05-02T16:27:02.177Z,44.70
2023-05-02T16:29:33.810Z,44.67
2023-05-02T16:32:06.084Z,44.69
2023-05-02T16:34:39.024Z,44.45
2023-05-02T16:37:11.497Z,44.86
2023-05-02T16:39:43.304Z,45.11
2023-05-02T16:42:15.651Z,45.56
2023-05-02T16:44:48.009Z,45.56
2023-05-02T16:47:19.796Z,45.61
2023-05-02T16:49:55.619Z,45.92
2023-05-02T16:52:28.056Z,44.97
2023-05-02T16:55:00.831Z,45.26
2023-05-02T16:57:32.740Z,45.55
2023-05-02T17:00:05.427Z,45.49
2023-05-02T17:02:37.628Z,45.49
2023-05-02T17:05:10.726Z,45.71
2023-05-02T17:07:42.499Z,45.93
2023-05-02T17:10:14.330Z,45.77
2023-05-02T17:12:47.133Z,45.93
2023-05-02T17:15:18.913Z,46.20
2023-05-02T17:17:50.893Z,46.25
2023-05-02T17:20:22.792Z,46.42
2023-05-02T17:22:54.683Z,46.34
2023-05-02T17:25:26.798Z,46.55
2023-05-02T17:27:58.618Z,46.43
2023-05-02T17:30:30.595Z,46.36
2023-05-02T17:33:02.853Z,46.34
2023-05-02T17:35:34.680Z,46.41
2023-05-02T17:38:06.479Z,46.69
2023-05-02T17:40:38.514Z,46.80
2023-05-02T17:43:12.346Z,46.72
2023-05-02T17:45:44.415Z,46.65
2023-05-02T17:48:16.266Z,46.64
2023-05-02T17:50:49.934Z,46.47
2023-05-02T17:53:22.542Z,46.76
2023-05-02T17:55:54.836Z,46.15
2023-05-02T17:58:30.718Z,46.30
2023-05-02T18:01:09.927Z,46.40
2023-05-02T18:03:42.016Z,46.17
2023-05-02T18:06:18.270Z,45.85
2023-05-02T18:08:50.180Z,46.05
2023-05-02T18:11:24.201Z,46.04
2023-05-02T18:13:56.788Z,46.16
2023-05-02T18:16:28.565Z,46.20
2023-05-02T18:19:01.352Z,46.44
2023-05-02T18:21:35.431Z,46.37
2023-05-02T18:24:07.630Z,46.08
2023-05-02T18:26:39.493Z,46.23
2023-05-02T18:29:11.516Z,46.08
2023-05-02T18:31:43.446Z,46.63
2023-05-02T18:34:15.304Z,46.76
2023-05-02T18:36:47.020Z,46.87
2023-05-02T18:39:21.506Z,46.76
2023-05-02T18:41:53.272Z,46.82
2023-05-02T18:44:25.169Z,47.16
2023-05-02T18:47:01.137Z,46.91
2023-05-02T18:49:33.964Z,46.86
2023-05-02T18:52:05.761Z,47.03
2023-05-02T18:54:37.762Z,47.19
2023-05-02T18:57:09.588Z,47.48
2023-05-02T18:59:41.353Z,48.48
2023-05-02T19:02:14.894Z,50.07
2023-05-02T19:04:46.808Z,51.08
2023-05-02T19:07:18.573Z,52.38
2023-05-02T19:09:51.297Z,53.44
2023-05-02T19:12:23.710Z,54.20
2023-05-02T19:14:55.606Z,55.01
2023-05-02T19:17:27.711Z,55.16
2023-05-02T19:19:59.762Z,56.19
2023-05-02T19:22:34.526Z,56.46
2023-05-02T19:25:09.596Z,56.59
2023-05-02T19:27:44.208Z,57.09
2023-05-02T19:30:15.879Z,57.10
2023-05-02T19:32:48.071Z,57.78
2023-05-02T19:35:20.009Z,57.86
2023-05-02T19:37:51.761Z,57.98
2023-05-02T19:40:23.553Z,58.45
2023-05-02T19:42:55.589Z,59.00
2023-05-02T19:45:27.818Z,58.77
2023-05-02T19:47:59.606Z,58.45
2023-05-02T19:50:33.294Z,58.43
2023-05-02T19:53:05.218Z,58.89
2023-05-02T19:55:36.994Z,58.75
2023-05-02T19:58:08.911Z,58.97
2023-05-02T20:00:43.899Z,59.12
2023-05-02T20:03:16.349Z,59.34
2023-05-02T20:05:50.042Z,58.85
2023-05-02T20:08:23.875Z,58.46
2023-05-02T20:10:56.291Z,58.93
2023-05-02T20:13:28.173Z,58.92
2023-05-02T20:15:59.968Z,59.05
2023-05-02T20:18:31.860Z,58.52
2023-05-02T20:21:03.669Z,58.40
2023-05-02T20:23:35.572Z,58.41
2023-05-02T20:26:07.421Z,58.36
2023-05-02T20:28:40.750Z,58.42
2023-05-02T20:31:12.491Z,58.02
2023-05-02T20:33:46.111Z,58.15
2023-05-02T20:36:18.289Z,57.85
2023-05-02T20:38:50.602Z,58.36
2023-05-02T20:41:23.946Z,58.32
2023-05-02T20:43:57.099Z,58.66
2023-05-02T20:46:29.219Z,58.66
2023-05-02T20:49:01.265Z,59.02
2023-05-02T20:51:35.628Z,58.85
2023-05-02T20:54:07.382Z,59.14
2023-05-02T20:56:39.402Z,59.40
2023-05-02T20:59:11.640Z,59.48
2023-05-02T21:01:43.379Z,59.51
2023-05-02T21:04:15.445Z,59.64
2023-05-02T21:06:47.691Z,59.71
2023-05-02T21:09:19.614Z,60.02
2023-05-02T21:11:51.424Z,59.89
2023-05-02T21:14:26.523Z,60.25
2023-05-02T21:16:58.280Z,60.12
2023-05-02T21:19:33.195Z,60.17
2023-05-02T21:22:05.163Z,60.79
2023-05-02T21:24:37.095Z,60.94
2023-05-02T21:27:11.674Z,61.05
2023-05-02T21:29:43.531Z,60.93
2023-05-02T21:32:15.521Z,61.34
2023-05-02T21:34:47.274Z,61.60
2023-05-02T21:37:19.103Z,61.56
2023-05-02T21:39:50.968Z,61.61
2023-05-02T21:42:22.846Z,62.05
2023-05-02T21:44:59.471Z,62.13
2023-05-02T21:47:32.421Z,62.06
2023-05-02T21:50:05.497Z,62.18
2023-05-02T21:52:37.436Z,61.82
2023-05-02T21:55:09.390Z,62.14
2023-05-02T21:57:44.029Z,61.79
2023-05-02T22:00:15.717Z,61.93
2023-05-02T22:02:47.919Z,62.28
2023-05-02T22:05:19.782Z,62.29
2023-05-02T22:07:52.350Z,61.70
2023-05-02T22:10:24.075Z,61.83
2023-05-02T22:12:56.665Z,61.66
2023-05-02T22:15:28.399Z,61.15
2023-05-02T22:18:01.601Z,61.26
2023-05-02T22:20:33.440Z,61.11
2023-05-02T22:23:05.843Z,61.16
2023-05-02T22:25:41.937Z,60.61
2023-05-02T22:28:13.920Z,60.42
2023-05-02T22:30:46.183Z,60.67
2023-05-02T22:33:17.993Z,60.24
2023-05-02T22:35:49.726Z,60.73
2023-05-02T22:38:21.528Z,60.85
2023-05-02T22:40:53.515Z,60.59
2023-05-02T22:43:25.699Z,60.16
2023-05-02T22:45:58.946Z,60.03
2023-05-02T22:48:31.038Z,59.87
2023-05-02T22:51:03.028Z,59.58
2023-05-02T22:53:35.301Z,59.38
2023-05-02T22:56:07.208Z,59.35
2023-05-02T22:58:38.992Z,58.95
2023-05-02T23:01:11.610Z,58.97
2023-05-02T23:03:43.675Z,58.74
2023-05-02T23:06:15.447Z,58.39
2023-05-02T23:08:47.269Z,58.33
2023-05-02T23:11:19.074Z,58.10
2023-05-02T23:13:50.837Z,58.05
2023-05-02T23:16:22.833Z,58.08
2023-05-02T23:18:54.698Z,58.07
2023-05-02T23:21:26.474Z,57.76
2023-05-02T23:23:58.528Z,58.15
2023-05-02T23:26:30.566Z,58.28
2023-05-02T23:29:02.503Z,58.35
2023-05-02T23:31:34.428Z,58.11
2023-05-02T23:34:07.244Z,57.99
2023-05-02T23:36:39.550Z,57.94
2023-05-02T23:39:11.812Z,57.54
2023-05-02T23:41:43.650Z,57.77
2023-05-02T23:44:17.576Z,58.16
2023-05-02T23:46:50.347Z,57.76
2023-05-02T23:49:22.191Z,57.57
2023-05-02T23:51:53.952Z,56.99
2023-05-02T23:54:26.142Z,57.16
2023-05-02T23:56:58.613Z,57.13
2023-05-02T23:59:30.429Z,57.10
